createdAt,value
2018-08-04T00:01:54.381Z,99247.36
2018-08-04T00:04:56.823Z,99244.64
2018-08-04T00:07:59.155Z,99247.41
2018-08-04T00:11:01.514Z,99244.55
2018-08-04T00:14:03.858Z,99243.28
2018-08-04T00:20:06.760Z,99240.23
2018-08-04T00:23:09.041Z,99239.08
2018-08-04T00:26:11.373Z,99237.84
2018-08-04T00:29:13.772Z,99240.95
2018-08-04T00:32:16.160Z,99242.06
2018-08-04T00:35:19.120Z,99235.12
2018-08-04T00:38:21.492Z,99232.02
2018-08-04T00:41:23.792Z,99230.00
2018-08-04T00:47:20.747Z,99234.86
2018-08-04T00:50:23.151Z,99236.70
2018-08-04T00:53:25.816Z,99230.45
2018-08-04T00:56:28.234Z,99222.65
2018-08-04T00:59:30.486Z,99217.92
2018-08-04T01:02:32.847Z,99208.45
2018-08-04T01:05:36.219Z,99207.77
2018-08-04T01:08:38.527Z,99202.13
2018-08-04T01:11:40.850Z,99198.66
2018-08-04T01:14:43.416Z,99200.58
2018-08-04T01:17:45.671Z,99201.52
2018-08-04T01:20:47.937Z,99205.84
2018-08-04T01:23:50.194Z,99215.18
2018-08-04T01:26:52.534Z,99201.55
2018-08-04T01:29:54.876Z,99195.58
2018-08-04T01:32:57.136Z,99192.32
2018-08-04T01:35:59.449Z,99190.02
2018-08-04T01:39:01.764Z,99190.98
2018-08-04T01:42:04.078Z,99190.66
2018-08-04T01:45:06.311Z,99189.36
2018-08-04T01:48:08.548Z,99179.05
2018-08-04T01:51:10.855Z,99177.14
2018-08-04T01:54:13.147Z,99178.46
2018-08-04T01:57:15.534Z,99178.46
2018-08-04T01:59:21.392Z,99179.79
2018-08-04T02:00:23.685Z,99177.58
2018-08-04T02:01:25.910Z,99176.77
2018-08-04T02:02:58.247Z,99184.22
2018-08-04T02:04:31.573Z,99180.98
2018-08-04T02:06:03.961Z,99179.42
2018-08-04T02:07:36.331Z,99183.92
2018-08-04T02:09:09.868Z,99177.06
2018-08-04T02:10:42.289Z,99183.63
2018-08-04T02:12:14.617Z,99187.54
2018-08-04T02:13:46.996Z,99187.69
2018-08-04T02:15:19.371Z,99186.59
2018-08-04T02:16:51.645Z,99187.55
2018-08-04T02:18:23.984Z,99189.32
2018-08-04T02:19:56.361Z,99187.92
2018-08-04T02:21:28.719Z,99187.84
2018-08-04T02:23:01.078Z,99183.80
2018-08-04T02:24:33.491Z,99183.20
2018-08-04T02:26:05.784Z,99185.86
2018-08-04T02:27:38.017Z,99183.28
2018-08-04T02:29:10.243Z,99185.42
2018-08-04T02:30:42.611Z,99185.20
2018-08-04T02:32:14.959Z,99184.23
2018-08-04T02:33:47.317Z,99184.90
2018-08-04T02:35:19.617Z,99181.88
2018-08-04T02:36:51.831Z,99185.55
2018-08-04T02:38:24.174Z,99177.50
2018-08-04T02:39:56.441Z,99177.41
2018-08-04T02:41:28.765Z,99172.30
2018-08-04T02:43:01.129Z,99172.96
2018-08-04T02:44:33.441Z,99174.58
2018-08-04T02:46:05.732Z,99165.88
2018-08-04T02:47:38.155Z,99169.34
2018-08-04T02:49:10.375Z,99162.63
2018-08-04T02:50:43.780Z,99168.23
2018-08-04T02:52:16.106Z,99164.55
2018-08-04T02:53:48.506Z,99168.81
2018-08-04T02:55:20.842Z,99170.44
2018-08-04T02:56:53.247Z,99169.40
2018-08-04T02:58:25.547Z,99170.31
2018-08-04T02:59:57.806Z,99168.69
2018-08-04T03:01:30.102Z,99176.20
2018-08-04T03:03:02.459Z,99179.73
2018-08-04T03:04:35.809Z,99175.16
2018-08-04T03:06:08.120Z,99175.48
2018-08-04T03:07:40.426Z,99170.03
2018-08-04T03:09:12.724Z,99171.16
2018-08-04T03:10:45.096Z,99177.43
2018-08-04T03:12:17.421Z,99172.80
2018-08-04T03:13:49.932Z,99171.69
2018-08-04T03:15:22.298Z,99175.67
2018-08-04T03:16:54.645Z,99170.07
2018-08-04T03:18:26.869Z,99171.98
2018-08-04T03:19:59.169Z,99172.05
2018-08-04T03:21:31.860Z,99163.34
2018-08-04T03:23:04.212Z,99165.78
2018-08-04T03:24:36.574Z,99170.05
2018-08-04T03:26:08.918Z,99170.86
2018-08-04T03:27:41.179Z,99169.83
2018-08-04T03:29:13.409Z,99167.69
2018-08-04T03:30:45.704Z,99168.28
2018-08-04T03:32:17.954Z,99170.64
2018-08-04T03:33:50.251Z,99164.30
2018-08-04T03:35:22.506Z,99168.73
2018-08-04T03:36:54.747Z,99173.00
2018-08-04T03:38:27.019Z,99173.16
2018-08-04T03:39:59.508Z,99174.19
2018-08-04T03:41:31.876Z,99180.30
2018-08-04T03:43:04.144Z,99184.52
2018-08-04T03:44:36.487Z,99187.16
2018-08-04T03:46:08.891Z,99195.42
2018-08-04T03:47:41.223Z,99190.85
2018-08-04T03:49:13.451Z,99195.80
2018-08-04T03:50:45.736Z,99200.80
2018-08-04T03:52:17.996Z,99191.00
2018-08-04T03:53:50.243Z,99188.20
2018-08-04T03:55:22.538Z,99197.78
2018-08-04T03:56:54.805Z,99198.08
2018-08-04T03:58:27.152Z,99195.86
2018-08-04T03:59:59.540Z,99198.81
2018-08-04T04:01:31.914Z,99202.50
2018-08-04T04:03:04.214Z,99209.65
2018-08-04T04:04:36.503Z,99201.62
2018-08-04T04:06:08.837Z,99206.34
2018-08-04T04:07:41.093Z,99209.36
2018-08-04T04:09:13.390Z,99202.52
2018-08-04T04:10:45.761Z,99210.33
2018-08-04T04:12:18.228Z,99212.31
2018-08-04T04:13:50.789Z,99207.16
2018-08-04T04:15:23.074Z,99208.70
2018-08-04T04:16:55.520Z,99200.45
2018-08-04T04:18:27.789Z,99210.03
2018-08-04T04:20:00.140Z,99205.31
2018-08-04T04:21:33.572Z,99213.56
2018-08-04T04:23:05.875Z,99210.91
2018-08-04T04:24:38.111Z,99208.84
2018-08-04T04:26:10.546Z,99214.01
2018-08-04T04:27:43.297Z,99210.91
2018-08-04T04:29:15.520Z,99203.03
2018-08-04T04:30:47.852Z,99212.39
2018-08-04T04:32:20.201Z,99214.52
2018-08-04T04:33:52.452Z,99202.95
2018-08-04T04:35:24.813Z,99207.00
2018-08-04T04:36:57.035Z,99214.30
2018-08-04T04:38:29.268Z,99214.52
2018-08-04T04:40:01.931Z,99215.02
2018-08-04T04:41:34.374Z,99211.45
2018-08-04T04:43:06.812Z,99212.87
2018-08-04T04:44:39.119Z,99210.17
2018-08-04T04:46:11.426Z,99214.81
2018-08-04T04:47:43.801Z,99214.88
2018-08-04T04:49:16.165Z,99215.30
2018-08-04T04:50:48.515Z,99217.02
2018-08-04T04:52:20.876Z,99212.71
2018-08-04T04:53:53.324Z,99224.29
2018-08-04T04:55:25.715Z,99219.78
2018-08-04T04:56:58.041Z,99222.20
2018-08-04T04:58:30.303Z,99215.03
2018-08-04T05:00:02.640Z,99218.33
2018-08-04T05:01:35.041Z,99220.91
2018-08-04T05:03:07.322Z,99217.55
2018-08-04T05:04:40.633Z,99217.39
2018-08-04T05:06:12.854Z,99200.59
2018-08-04T05:07:45.068Z,99200.86
2018-08-04T05:09:17.367Z,99200.33
2018-08-04T05:10:49.601Z,99201.19
2018-08-04T05:12:21.898Z,99205.62
2018-08-04T05:13:55.337Z,99202.41
2018-08-04T05:15:27.634Z,99204.26
2018-08-04T05:16:59.980Z,99209.71
2018-08-04T05:18:32.217Z,99208.95
2018-08-04T05:20:05.406Z,99209.77
2018-08-04T05:21:37.808Z,99213.52
2018-08-04T05:23:10.125Z,99216.90
2018-08-04T05:24:42.428Z,99227.20
2018-08-04T05:26:14.717Z,99240.13
2018-08-04T05:27:46.945Z,99244.70
2018-08-04T05:29:19.255Z,99249.93
2018-08-04T05:30:51.432Z,99247.22
2018-08-04T05:32:23.769Z,99243.12
2018-08-04T05:33:55.964Z,99243.84
2018-08-04T05:35:28.187Z,99239.11
2018-08-04T05:37:00.571Z,99248.60
2018-08-04T05:38:32.868Z,99242.64
2018-08-04T05:40:05.213Z,99240.26
2018-08-04T05:41:37.516Z,99234.91
2018-08-04T05:43:09.752Z,99235.72
2018-08-04T05:44:42.028Z,99229.01
2018-08-04T05:46:14.294Z,99227.94
2018-08-04T05:47:46.480Z,99227.09
2018-08-04T05:49:18.693Z,99231.27
2018-08-04T05:50:50.951Z,99232.83
2018-08-04T05:52:23.273Z,99231.22
2018-08-04T05:53:55.563Z,99230.35
2018-08-04T05:55:27.860Z,99226.70
2018-08-04T05:57:00.082Z,99223.15
2018-08-04T05:58:32.374Z,99215.91
2018-08-04T06:00:06.276Z,99210.80
2018-08-04T06:01:38.578Z,99206.13
2018-08-04T06:03:10.881Z,99198.28
2018-08-04T06:04:43.194Z,99204.88
2018-08-04T06:06:15.467Z,99195.69
2018-08-04T06:07:47.735Z,99195.26
2018-08-04T06:09:19.979Z,99188.97
2018-08-04T06:10:52.239Z,99171.88
2018-08-04T06:12:24.624Z,99153.64
2018-08-04T06:13:56.932Z,99155.14
2018-08-04T06:15:29.237Z,99129.44
2018-08-04T06:17:01.504Z,99155.69
2018-08-04T06:18:33.749Z,99119.49
2018-08-04T06:20:06.194Z,99140.91
2018-08-04T06:21:38.517Z,99087.27
2018-08-04T06:23:10.761Z,99066.51
2018-08-04T06:24:42.999Z,99091.92
2018-08-04T06:26:16.365Z,99105.42
2018-08-04T06:27:49.700Z,99155.20
2018-08-04T06:29:21.901Z,99182.09
2018-08-04T06:30:54.175Z,99190.56
2018-08-04T06:32:26.505Z,99233.34
2018-08-04T06:33:58.728Z,99246.23
2018-08-04T06:35:31.045Z,99279.36
2018-08-04T06:37:03.429Z,99338.87
2018-08-04T06:38:35.758Z,99346.25
2018-08-04T06:40:08.229Z,99364.05
2018-08-04T06:41:40.555Z,99348.27
2018-08-04T06:43:12.839Z,99328.34
2018-08-04T06:44:45.117Z,99316.37
2018-08-04T06:46:17.333Z,99304.98
2018-08-04T06:47:49.634Z,99297.13
2018-08-04T06:49:21.862Z,99289.62
2018-08-04T06:50:54.272Z,99274.67
2018-08-04T06:52:26.597Z,99276.99
2018-08-04T06:53:58.884Z,99277.59
2018-08-04T06:55:31.171Z,99270.85
2018-08-04T06:57:03.413Z,99267.59
2018-08-04T06:58:35.634Z,99262.22
2018-08-04T07:00:08.563Z,99263.57
2018-08-04T07:01:41.019Z,99257.17
2018-08-04T07:03:14.303Z,99262.27
2018-08-04T07:04:46.653Z,99257.19
2018-08-04T07:06:18.829Z,99248.31
2018-08-04T07:07:51.126Z,99246.14
2018-08-04T07:09:23.412Z,99245.63
2018-08-04T07:10:55.614Z,99246.70
2018-08-04T07:12:27.875Z,99235.44
2018-08-04T07:14:00.159Z,99250.72
2018-08-04T07:15:32.485Z,99255.29
2018-08-04T07:17:04.807Z,99254.17
2018-08-04T07:18:37.147Z,99256.80
2018-08-04T07:20:09.343Z,99252.48
2018-08-04T07:21:41.612Z,99258.38
2018-08-04T07:23:13.912Z,99255.88
2018-08-04T07:24:46.146Z,99252.90
2018-08-04T07:26:18.432Z,99260.09
2018-08-04T07:27:50.621Z,99256.95
2018-08-04T07:29:22.808Z,99252.76
2018-08-04T07:30:56.015Z,99259.20
2018-08-04T07:32:28.265Z,99258.91
2018-08-04T07:34:00.601Z,99264.58
2018-08-04T07:35:32.908Z,99255.49
2018-08-04T07:37:05.569Z,99256.83
2018-08-04T07:38:37.790Z,99257.36
2018-08-04T07:40:09.933Z,99258.20
2018-08-04T07:41:42.260Z,99257.89
2018-08-04T07:43:14.485Z,99252.23
2018-08-04T07:44:46.757Z,99254.93
2018-08-04T07:46:19.111Z,99242.88
2018-08-04T07:47:51.325Z,99245.31
2018-08-04T07:49:23.612Z,99239.16
2018-08-04T07:50:55.796Z,99242.69
2018-08-04T07:53:58.101Z,99229.02
2018-08-04T07:57:00.279Z,99226.85
2018-08-04T08:00:02.609Z,99204.69
2018-08-04T08:03:04.880Z,99194.58
2018-08-04T08:06:07.149Z,99212.82
2018-08-04T08:09:09.449Z,99232.83
2018-08-04T08:12:11.835Z,99225.60
2018-08-04T08:15:14.172Z,99216.99
2018-08-04T08:18:16.426Z,99231.23
2018-08-04T08:21:18.707Z,99222.01
2018-08-04T08:24:20.985Z,99219.12
2018-08-04T08:27:23.276Z,99220.01
2018-08-04T08:30:25.648Z,99231.17
2018-08-04T08:33:28.080Z,99194.98
2018-08-04T08:36:30.356Z,99178.39
2018-08-04T08:39:32.722Z,99193.45
2018-08-04T08:42:35.071Z,99203.63
2018-08-04T08:45:37.419Z,99215.53
2018-08-04T08:48:39.809Z,99226.50
2018-08-04T08:51:42.061Z,99208.02
2018-08-04T08:54:44.654Z,99200.97
2018-08-04T08:57:46.997Z,99197.56
2018-08-04T09:00:49.297Z,99202.56
2018-08-04T09:03:52.290Z,99226.95
2018-08-04T09:06:54.650Z,99226.95
2018-08-04T09:09:57.020Z,99226.67
2018-08-04T09:12:59.313Z,99234.33
2018-08-04T09:16:01.671Z,99220.30
2018-08-04T09:19:04.271Z,99241.74
2018-08-04T09:22:06.632Z,99244.92
2018-08-04T09:25:09.198Z,99236.27
2018-08-04T09:28:11.568Z,99241.08
2018-08-04T09:31:13.818Z,99234.25
2018-08-04T09:34:16.037Z,99221.66
2018-08-04T09:37:18.394Z,99222.01
2018-08-04T09:40:20.756Z,99214.20
2018-08-04T09:43:23.027Z,99221.94
2018-08-04T09:46:25.300Z,99218.84
2018-08-04T09:49:27.614Z,99225.17
2018-08-04T09:52:29.987Z,99213.09
2018-08-04T09:55:32.315Z,99206.59
2018-08-04T09:58:34.583Z,99201.08
2018-08-04T10:01:37.974Z,99213.23
2018-08-04T10:04:40.546Z,99203.23
2018-08-04T10:07:42.845Z,99201.12
2018-08-04T10:10:45.141Z,99214.62
2018-08-04T10:13:47.557Z,99213.30
2018-08-04T10:16:49.800Z,99211.91
2018-08-04T10:19:52.054Z,99197.06
2018-08-04T10:22:54.183Z,99222.41
2018-08-04T10:25:56.529Z,99218.82
2018-08-04T10:28:58.789Z,99199.48
2018-08-04T10:32:01.258Z,99195.63
2018-08-04T10:35:04.040Z,99203.19
2018-08-04T10:38:06.347Z,99215.66
2018-08-04T10:41:08.687Z,99193.23
2018-08-04T10:44:10.988Z,99208.22
2018-08-04T10:47:13.243Z,99199.06
2018-08-04T10:50:15.485Z,99185.22
2018-08-04T10:53:17.823Z,99188.33
2018-08-04T10:56:20.145Z,99203.19
2018-08-04T10:59:22.491Z,99195.69
2018-08-04T11:02:24.826Z,99183.31
2018-08-04T11:05:27.060Z,99176.66
2018-08-04T11:08:29.341Z,99175.16
2018-08-04T11:11:31.664Z,99186.67
2018-08-04T11:14:33.929Z,99176.81
2018-08-04T11:17:36.676Z,99156.11
2018-08-04T11:20:39.013Z,99145.09
2018-08-04T11:23:41.302Z,99174.52
2018-08-04T11:26:43.523Z,99162.48
2018-08-04T11:29:45.837Z,99149.19
2018-08-04T11:32:48.101Z,99146.04
2018-08-04T11:35:50.448Z,99169.09
2018-08-04T11:38:52.745Z,99179.90
2018-08-04T11:41:55.021Z,99164.95
2018-08-04T11:44:57.275Z,99154.70
2018-08-04T11:47:59.518Z,99183.41
2018-08-04T11:51:01.957Z,99167.33
2018-08-04T11:54:04.167Z,99173.11
2018-08-04T11:57:06.441Z,99163.37
2018-08-04T12:00:08.853Z,99162.09
2018-08-04T12:03:12.387Z,99144.49
2018-08-04T12:06:14.647Z,99143.80
2018-08-04T12:09:16.974Z,99140.98
2018-08-04T12:12:19.407Z,99162.30
2018-08-04T12:15:21.748Z,99146.30
2018-08-04T12:18:23.980Z,99110.38
2018-08-04T12:21:26.263Z,99094.27
2018-08-04T12:24:28.582Z,99111.00
2018-08-04T12:27:30.772Z,99116.24
2018-08-04T12:30:33.093Z,99102.70
2018-08-04T12:33:35.371Z,99118.06
2018-08-04T12:36:37.676Z,99126.79
2018-08-04T12:39:39.925Z,99119.13
2018-08-04T12:42:42.135Z,99099.76
2018-08-04T12:45:44.439Z,99136.02
2018-08-04T12:48:46.707Z,99171.48
2018-08-04T12:51:49.056Z,99152.14
2018-08-04T12:54:51.244Z,99119.00
2018-08-04T12:57:53.532Z,99113.84
2018-08-04T13:00:55.758Z,99090.06
2018-08-04T13:03:58.053Z,99053.77
2018-08-04T13:07:00.352Z,99079.75
2018-08-04T13:10:03.828Z,99094.30
2018-08-04T13:13:06.148Z,99068.19
2018-08-04T13:16:08.469Z,99075.36
2018-08-04T13:19:10.726Z,99086.33
2018-08-04T13:22:13.097Z,99139.94
2018-08-04T13:25:15.437Z,99089.44
2018-08-04T13:28:17.657Z,99070.67
2018-08-04T13:31:20.027Z,99106.20
2018-08-04T13:34:22.325Z,99078.23
2018-08-04T13:37:24.640Z,99028.33
2018-08-04T13:40:26.899Z,99027.28
2018-08-04T13:43:30.195Z,99047.56
2018-08-04T13:46:32.479Z,99056.98
2018-08-04T13:49:34.781Z,99056.72
2018-08-04T13:52:37.086Z,99042.61
2018-08-04T13:55:39.682Z,99062.19
2018-08-04T13:58:42.710Z,99073.53
2018-08-04T14:01:45.364Z,99042.90
2018-08-04T14:04:47.846Z,99032.02
2018-08-04T14:07:50.683Z,99067.39
2018-08-04T14:10:53.023Z,99086.19
2018-08-04T14:13:56.132Z,99099.45
2018-08-04T14:16:58.464Z,99105.20
2018-08-04T14:20:00.694Z,99116.50
2018-08-04T14:23:03.082Z,99095.47
2018-08-04T14:26:05.310Z,99112.53
2018-08-04T14:29:07.559Z,99080.70
2018-08-04T14:32:09.817Z,99088.44
2018-08-04T14:35:12.116Z,99080.17
2018-08-04T14:38:14.463Z,99090.74
2018-08-04T14:41:16.725Z,99073.41
2018-08-04T14:44:18.972Z,99035.23
2018-08-04T14:47:22.320Z,99054.25
2018-08-04T14:50:24.547Z,99037.72
2018-08-04T14:53:26.837Z,99013.16
2018-08-04T14:56:29.304Z,98988.77
2018-08-04T14:59:34.336Z,98981.26
2018-08-04T15:02:36.648Z,99016.14
2018-08-04T15:05:39.109Z,99035.69
2018-08-04T15:08:41.373Z,99016.09
2018-08-04T15:11:43.647Z,99026.55
2018-08-04T15:14:45.891Z,99019.42
2018-08-04T15:17:48.192Z,99043.96
2018-08-04T15:20:50.558Z,99043.85
2018-08-04T15:23:52.833Z,99041.34
2018-08-04T15:26:55.135Z,98972.48
2018-08-04T15:29:57.374Z,98993.55
2018-08-04T15:32:59.699Z,98966.64
2018-08-04T15:36:01.945Z,98981.05
2018-08-04T15:39:06.748Z,98972.87
2018-08-04T15:42:09.006Z,98981.95
2018-08-04T15:45:11.325Z,98924.00
2018-08-04T15:48:13.641Z,98966.27
2018-08-04T15:51:17.215Z,98989.36
2018-08-04T15:54:19.549Z,99015.91
2018-08-04T15:57:22.331Z,98971.92
2018-08-04T16:00:24.580Z,98995.09
2018-08-04T16:03:26.903Z,98997.05
2018-08-04T16:06:29.232Z,98987.75
2018-08-04T16:09:31.519Z,98991.36
2018-08-04T16:12:34.843Z,98978.36
2018-08-04T16:15:37.035Z,98998.72
2018-08-04T16:18:39.366Z,99015.13
2018-08-04T16:21:42.624Z,99057.95
2018-08-04T16:24:45.059Z,99063.54
2018-08-04T16:27:47.326Z,99080.20
2018-08-04T16:30:49.517Z,99069.52
2018-08-04T16:33:51.803Z,99040.38
2018-08-04T16:36:54.094Z,99067.78
2018-08-04T16:39:56.330Z,99045.05
2018-08-04T16:42:58.521Z,99047.18
2018-08-04T16:46:00.800Z,98994.86
2018-08-04T16:49:03.096Z,99009.50
2018-08-04T16:52:05.373Z,98982.50
2018-08-04T16:55:07.608Z,99016.58
2018-08-04T16:58:09.836Z,99059.95
2018-08-04T17:01:12.097Z,99059.22
2018-08-04T17:04:14.355Z,99065.27
2018-08-04T17:07:16.619Z,99095.92
2018-08-04T17:10:18.889Z,99033.13
2018-08-04T17:13:21.176Z,98954.98
2018-08-04T17:16:23.485Z,98930.97
2018-08-04T17:19:25.673Z,98953.27
2018-08-04T17:22:28.001Z,98998.19
2018-08-04T17:25:30.241Z,98957.95
2018-08-04T17:28:32.509Z,98957.35
2018-08-04T17:31:34.785Z,98967.92
2018-08-04T17:34:37.116Z,98992.08
2018-08-04T17:37:39.546Z,98996.45
2018-08-04T17:40:41.812Z,99028.38
2018-08-04T17:43:44.119Z,99026.88
2018-08-04T17:46:46.361Z,99056.34
2018-08-04T17:49:48.559Z,99112.94
2018-08-04T17:52:51.815Z,99147.64
2018-08-04T17:55:53.984Z,99172.02
2018-08-04T17:58:56.241Z,99191.30
2018-08-04T18:01:58.650Z,99214.78
2018-08-04T18:05:00.913Z,99222.03
2018-08-04T18:08:03.152Z,99241.83
2018-08-04T18:11:07.428Z,99285.63
2018-08-04T18:14:09.718Z,99309.55
2018-08-04T18:17:11.934Z,99324.96
2018-08-04T18:20:14.217Z,99361.81
2018-08-04T18:23:16.469Z,99355.00
2018-08-04T18:26:18.736Z,99353.25
2018-08-04T18:29:21.011Z,99349.73
2018-08-04T18:32:23.297Z,99363.55
2018-08-04T18:35:25.553Z,99348.70
2018-08-04T18:38:27.838Z,99337.63
2018-08-04T18:41:30.084Z,99318.03
2018-08-04T18:44:32.494Z,99306.31
2018-08-04T18:47:35.865Z,99279.14
2018-08-04T18:50:38.197Z,99259.59
2018-08-04T18:53:40.414Z,99257.20
2018-08-04T18:56:42.714Z,99276.11
2018-08-04T18:59:44.966Z,99263.43
2018-08-04T19:02:48.417Z,99251.44
2018-08-04T19:05:50.740Z,99246.73
2018-08-04T19:08:53.030Z,99242.23
2018-08-04T19:11:55.264Z,99232.69
2018-08-04T19:14:57.564Z,99235.42
2018-08-04T19:17:59.879Z,99233.27
2018-08-04T19:21:02.085Z,99237.57
2018-08-04T19:24:04.477Z,99237.31
2018-08-04T19:27:06.773Z,99236.47
2018-08-04T19:30:09.009Z,99238.30
2018-08-04T19:33:11.450Z,99233.11
2018-08-04T19:36:13.723Z,99239.21
2018-08-04T19:39:15.964Z,99234.84
2018-08-04T19:42:18.189Z,99235.84
2018-08-04T19:45:20.512Z,99246.96
2018-08-04T19:48:23.882Z,99249.78
2018-08-04T19:51:26.164Z,99250.17
2018-08-04T19:54:28.440Z,99258.34
2018-08-04T19:57:30.676Z,99251.48
2018-08-04T20:00:33.013Z,99260.74
2018-08-04T20:03:35.325Z,99257.52
2018-08-04T20:06:37.631Z,99259.25
2018-08-04T20:09:39.996Z,99273.15
2018-08-04T20:12:42.284Z,99268.05
2018-08-04T20:15:44.526Z,99272.05
2018-08-04T20:18:46.919Z,99279.19
2018-08-04T20:21:49.229Z,99273.84
2018-08-04T20:24:51.623Z,99278.35
2018-08-04T20:27:53.971Z,99278.22
2018-08-04T20:30:56.229Z,99271.45
2018-08-04T20:33:58.608Z,99270.59
2018-08-04T20:37:00.912Z,99267.23
2018-08-04T20:40:03.367Z,99265.27
2018-08-04T20:43:06.688Z,99270.97
2018-08-04T20:46:08.958Z,99276.30
2018-08-04T20:49:11.305Z,99280.52
2018-08-04T20:52:13.604Z,99281.16
2018-08-04T20:55:15.911Z,99284.85
2018-08-04T20:58:18.282Z,99289.81
2018-08-04T21:02:02.072Z,99297.45
2018-08-04T21:05:04.420Z,99291.78
2018-08-04T21:08:07.558Z,99294.33
2018-08-04T21:11:09.821Z,99291.00
2018-08-04T21:14:12.158Z,99296.23
2018-08-04T21:17:14.432Z,99296.76
2018-08-04T21:20:17.816Z,99306.23
2018-08-04T21:23:20.142Z,99305.13
2018-08-04T21:26:22.438Z,99307.31
2018-08-04T21:29:24.898Z,99301.41
2018-08-04T21:32:27.138Z,99304.41
2018-08-04T21:35:29.665Z,99306.20
2018-08-04T21:38:32.010Z,99311.05
2018-08-04T21:41:34.259Z,99318.23
2018-08-04T21:44:36.554Z,99321.48
2018-08-04T21:47:38.867Z,99328.83
2018-08-04T21:50:41.305Z,99331.62
2018-08-04T21:53:43.612Z,99332.21
2018-08-04T21:56:46.152Z,99333.30
2018-08-04T21:59:48.396Z,99333.67
2018-08-04T22:02:58.520Z,99335.00
2018-08-04T22:06:00.823Z,99331.44
2018-08-04T22:09:14.549Z,99335.72
2018-08-04T22:12:16.817Z,99338.41
2018-08-04T22:15:19.114Z,99335.18
2018-08-04T22:18:21.374Z,99328.64
2018-08-04T22:21:23.591Z,99330.08
2018-08-04T22:24:25.791Z,99327.08
2018-08-04T22:27:28.085Z,99332.56
2018-08-04T22:30:30.306Z,99344.81
2018-08-04T22:33:32.543Z,99344.17
2018-08-04T22:36:34.819Z,99344.36
2018-08-04T22:39:37.104Z,99346.78
2018-08-04T22:42:39.603Z,99347.78
2018-08-04T22:46:21.015Z,99352.97
2018-08-04T22:49:23.305Z,99343.38
2018-08-04T22:52:25.632Z,99347.94
2018-08-04T22:55:27.910Z,99346.39
2018-08-04T22:58:30.135Z,99347.48
2018-08-04T23:01:32.419Z,99344.41
2018-08-04T23:04:34.726Z,99342.50
2018-08-04T23:07:37.130Z,99345.77
2018-08-04T23:10:39.980Z,99352.86
2018-08-04T23:13:42.213Z,99351.67
2018-08-04T23:16:44.544Z,99344.12
2018-08-04T23:19:46.900Z,99348.98
2018-08-04T23:22:49.360Z,99354.39
2018-08-04T23:25:51.742Z,99354.45
2018-08-04T23:28:54.013Z,99353.58
2018-08-04T23:31:56.396Z,99353.63
2018-08-04T23:34:58.701Z,99358.02
2018-08-04T23:38:01.095Z,99359.31
2018-08-04T23:41:04.503Z,99363.84
2018-08-04T23:44:06.832Z,99359.84
2018-08-04T23:47:09.230Z,99359.98
2018-08-04T23:50:11.564Z,99359.83
2018-08-04T23:53:13.978Z,99364.40
2018-08-04T23:56:16.360Z,99362.88
2018-08-04T23:59:18.658Z,99366.47
